sensor_id;sensor_type;location;lat;lon;timestamp;P1;durP1;ratioP1;P2;durP2;ratioP2
50337;SDS011;46221;51.178;5.900;2023-02-21T00:01:23;6.43;;;4.85;;
50337;SDS011;46221;51.178;5.900;2023-02-21T00:04:07;7.10;;;5.05;;
50337;SDS011;46221;51.178;5.900;2023-02-21T00:06:52;8.80;;;6.65;;
50337;SDS011;46221;51.178;5.900;2023-02-21T00:09:37;7.80;;;5.50;;
50337;SDS011;46221;51.178;5.900;2023-02-21T00:12:23;7.57;;;5.13;;
50337;SDS011;46221;51.178;5.900;2023-02-21T00:15:08;6.75;;;4.93;;
50337;SDS011;46221;51.178;5.900;2023-02-21T00:17:52;7.28;;;5.38;;
50337;SDS011;46221;51.178;5.900;2023-02-21T00:20:37;6.32;;;5.00;;
50337;SDS011;46221;51.178;5.900;2023-02-21T00:23:22;7.43;;;4.65;;
50337;SDS011;46221;51.178;5.900;2023-02-21T00:26:07;7.03;;;5.35;;
50337;SDS011;46221;51.178;5.900;2023-02-21T00:28:52;7.00;;;4.70;;
50337;SDS011;46221;51.178;5.900;2023-02-21T00:31:37;7.72;;;4.57;;
50337;SDS011;46221;51.178;5.900;2023-02-21T00:34:22;6.13;;;4.15;;
50337;SDS011;46221;51.178;5.900;2023-02-21T00:37:07;7.72;;;4.75;;
50337;SDS011;46221;51.178;5.900;2023-02-21T00:39:51;6.53;;;5.05;;
50337;SDS011;46221;51.178;5.900;2023-02-21T00:42:37;6.82;;;5.03;;
50337;SDS011;46221;51.178;5.900;2023-02-21T00:45:21;6.47;;;5.13;;
50337;SDS011;46221;51.178;5.900;2023-02-21T00:48:06;7.15;;;5.18;;
50337;SDS011;46221;51.178;5.900;2023-02-21T00:50:51;7.40;;;4.93;;
50337;SDS011;46221;51.178;5.900;2023-02-21T00:53:36;6.47;;;4.57;;
50337;SDS011;46221;51.178;5.900;2023-02-21T00:56:21;6.45;;;5.05;;
50337;SDS011;46221;51.178;5.900;2023-02-21T00:59:06;6.35;;;5.40;;
50337;SDS011;46221;51.178;5.900;2023-02-21T01:01:51;7.30;;;4.75;;
50337;SDS011;46221;51.178;5.900;2023-02-21T01:04:35;7.30;;;5.97;;
50337;SDS011;46221;51.178;5.900;2023-02-21T01:07:20;7.00;;;4.80;;
50337;SDS011;46221;51.178;5.900;2023-02-21T01:10:05;8.82;;;5.28;;
50337;SDS011;46221;51.178;5.900;2023-02-21T01:12:50;7.05;;;4.95;;
50337;SDS011;46221;51.178;5.900;2023-02-21T01:15:35;7.03;;;5.20;;
50337;SDS011;46221;51.178;5.900;2023-02-21T01:18:20;6.82;;;5.50;;
50337;SDS011;46221;51.178;5.900;2023-02-21T01:21:05;8.32;;;5.63;;
50337;SDS011;46221;51.178;5.900;2023-02-21T01:23:49;7.05;;;5.60;;
50337;SDS011;46221;51.178;5.900;2023-02-21T01:26:34;6.75;;;5.05;;
50337;SDS011;46221;51.178;5.900;2023-02-21T01:29:19;7.65;;;5.00;;
50337;SDS011;46221;51.178;5.900;2023-02-21T01:32:04;6.97;;;5.53;;
50337;SDS011;46221;51.178;5.900;2023-02-21T01:34:49;8.13;;;5.95;;
50337;SDS011;46221;51.178;5.900;2023-02-21T01:37:34;7.43;;;5.97;;
50337;SDS011;46221;51.178;5.900;2023-02-21T01:40:19;8.05;;;5.78;;
50337;SDS011;46221;51.178;5.900;2023-02-21T01:43:12;8.35;;;6.20;;
50337;SDS011;46221;51.178;5.900;2023-02-21T01:45:57;9.43;;;7.03;;
50337;SDS011;46221;51.178;5.900;2023-02-21T01:48:42;8.68;;;6.35;;
50337;SDS011;46221;51.178;5.900;2023-02-21T01:51:36;7.97;;;6.10;;
50337;SDS011;46221;51.178;5.900;2023-02-21T01:54:22;8.13;;;6.47;;
50337;SDS011;46221;51.178;5.900;2023-02-21T01:57:31;7.35;;;5.57;;
50337;SDS011;46221;51.178;5.900;2023-02-21T02:00:16;7.45;;;5.80;;
50337;SDS011;46221;51.178;5.900;2023-02-21T02:03:03;7.75;;;5.60;;
50337;SDS011;46221;51.178;5.900;2023-02-21T02:05:49;9.10;;;6.50;;
50337;SDS011;46221;51.178;5.900;2023-02-21T02:08:34;8.68;;;5.97;;
50337;SDS011;46221;51.178;5.900;2023-02-21T02:11:24;8.20;;;5.82;;
50337;SDS011;46221;51.178;5.900;2023-02-21T02:16:43;9.07;;;6.25;;
50337;SDS011;46221;51.178;5.900;2023-02-21T02:24:34;7.78;;;6.45;;
50337;SDS011;46221;51.178;5.900;2023-02-21T02:29:59;7.57;;;5.97;;
50337;SDS011;46221;51.178;5.900;2023-02-21T02:32:30;10.10;;;5.80;;
50337;SDS011;46221;51.178;5.900;2023-02-21T02:37:58;7.65;;;6.13;;
50337;SDS011;46221;51.178;5.900;2023-02-21T02:43:05;8.27;;;6.20;;
50337;SDS011;46221;51.178;5.900;2023-02-21T02:45:55;7.65;;;5.97;;
50337;SDS011;46221;51.178;5.900;2023-02-21T02:51:02;8.23;;;6.28;;
50337;SDS011;46221;51.178;5.900;2023-02-21T02:53:29;8.88;;;6.40;;
50337;SDS011;46221;51.178;5.900;2023-02-21T02:55:59;7.82;;;6.30;;
50337;SDS011;46221;51.178;5.900;2023-02-21T02:58:36;8.27;;;6.32;;
50337;SDS011;46221;51.178;5.900;2023-02-21T03:01:12;8.02;;;6.20;;
50337;SDS011;46221;51.178;5.900;2023-02-21T03:03:44;9.35;;;6.65;;
50337;SDS011;46221;51.178;5.900;2023-02-21T03:06:24;7.65;;;6.38;;
50337;SDS011;46221;51.178;5.900;2023-02-21T03:11:21;9.13;;;6.28;;
50337;SDS011;46221;51.178;5.900;2023-02-21T03:14:01;9.55;;;6.88;;
50337;SDS011;46221;51.178;5.900;2023-02-21T03:16:32;8.63;;;6.38;;
50337;SDS011;46221;51.178;5.900;2023-02-21T03:19:00;8.63;;;7.10;;
50337;SDS011;46221;51.178;5.900;2023-02-21T03:21:30;9.02;;;7.18;;
50337;SDS011;46221;51.178;5.900;2023-02-21T03:23:57;9.35;;;7.68;;
50337;SDS011;46221;51.178;5.900;2023-02-21T03:26:26;11.93;;;7.18;;
50337;SDS011;46221;51.178;5.900;2023-02-21T03:28:53;8.65;;;7.07;;
50337;SDS011;46221;51.178;5.900;2023-02-21T03:31:20;9.63;;;7.40;;
50337;SDS011;46221;51.178;5.900;2023-02-21T03:33:49;9.38;;;6.68;;
50337;SDS011;46221;51.178;5.900;2023-02-21T03:36:15;10.55;;;6.95;;
50337;SDS011;46221;51.178;5.900;2023-02-21T03:38:42;10.07;;;8.05;;
50337;SDS011;46221;51.178;5.900;2023-02-21T03:41:08;9.82;;;7.47;;
50337;SDS011;46221;51.178;5.900;2023-02-21T03:43:36;9.43;;;7.50;;
50337;SDS011;46221;51.178;5.900;2023-02-21T03:46:02;10.95;;;7.85;;
50337;SDS011;46221;51.178;5.900;2023-02-21T03:48:28;9.45;;;7.13;;
50337;SDS011;46221;51.178;5.900;2023-02-21T03:50:58;9.18;;;6.40;;
50337;SDS011;46221;51.178;5.900;2023-02-21T03:53:24;9.98;;;7.13;;
50337;SDS011;46221;51.178;5.900;2023-02-21T03:55:50;8.82;;;6.30;;
50337;SDS011;46221;51.178;5.900;2023-02-21T03:58:17;9.20;;;6.53;;
50337;SDS011;46221;51.178;5.900;2023-02-21T04:00:43;11.23;;;7.57;;
50337;SDS011;46221;51.178;5.900;2023-02-21T04:03:09;8.55;;;6.32;;
50337;SDS011;46221;51.178;5.900;2023-02-21T04:05:36;9.55;;;6.80;;
50337;SDS011;46221;51.178;5.900;2023-02-21T04:08:02;9.15;;;6.38;;
50337;SDS011;46221;51.178;5.900;2023-02-21T04:10:29;9.95;;;6.80;;
50337;SDS011;46221;51.178;5.900;2023-02-21T04:12:59;10.73;;;6.72;;
50337;SDS011;46221;51.178;5.900;2023-02-21T04:15:25;10.75;;;7.03;;
50337;SDS011;46221;51.178;5.900;2023-02-21T04:17:51;8.55;;;6.38;;
50337;SDS011;46221;51.178;5.900;2023-02-21T04:20:18;10.40;;;6.53;;
50337;SDS011;46221;51.178;5.900;2023-02-21T04:22:44;9.27;;;6.40;;
50337;SDS011;46221;51.178;5.900;2023-02-21T04:25:23;8.82;;;6.53;;
50337;SDS011;46221;51.178;5.900;2023-02-21T04:27:49;8.88;;;6.40;;
50337;SDS011;46221;51.178;5.900;2023-02-21T04:30:15;7.40;;;5.53;;
50337;SDS011;46221;51.178;5.900;2023-02-21T04:32:42;8.38;;;6.45;;
50337;SDS011;46221;51.178;5.900;2023-02-21T04:35:08;8.75;;;6.68;;
50337;SDS011;46221;51.178;5.900;2023-02-21T04:37:34;10.45;;;7.25;;
50337;SDS011;46221;51.178;5.900;2023-02-21T04:40:01;9.93;;;6.70;;
50337;SDS011;46221;51.178;5.900;2023-02-21T04:42:27;8.70;;;6.60;;
50337;SDS011;46221;51.178;5.900;2023-02-21T04:44:54;10.65;;;7.30;;
50337;SDS011;46221;51.178;5.900;2023-02-21T04:47:25;8.70;;;6.55;;
50337;SDS011;46221;51.178;5.900;2023-02-21T04:49:52;11.13;;;7.13;;
50337;SDS011;46221;51.178;5.900;2023-02-21T04:52:18;10.35;;;6.75;;
50337;SDS011;46221;51.178;5.900;2023-02-21T04:54:46;9.48;;;6.80;;
50337;SDS011;46221;51.178;5.900;2023-02-21T04:57:13;8.68;;;6.05;;
50337;SDS011;46221;51.178;5.900;2023-02-21T04:59:40;8.05;;;6.05;;
50337;SDS011;46221;51.178;5.900;2023-02-21T05:02:06;8.98;;;6.45;;
50337;SDS011;46221;51.178;5.900;2023-02-21T05:04:36;8.70;;;6.15;;
50337;SDS011;46221;51.178;5.900;2023-02-21T05:07:03;8.02;;;5.85;;
50337;SDS011;46221;51.178;5.900;2023-02-21T05:09:30;8.52;;;5.55;;
50337;SDS011;46221;51.178;5.900;2023-02-21T05:11:56;8.98;;;6.32;;
50337;SDS011;46221;51.178;5.900;2023-02-21T05:14:22;8.18;;;6.00;;
50337;SDS011;46221;51.178;5.900;2023-02-21T05:16:49;8.57;;;6.18;;
50337;SDS011;46221;51.178;5.900;2023-02-21T05:19:22;9.63;;;5.88;;
50337;SDS011;46221;51.178;5.900;2023-02-21T05:21:53;7.85;;;5.95;;
50337;SDS011;46221;51.178;5.900;2023-02-21T05:24:20;8.38;;;5.95;;
50337;SDS011;46221;51.178;5.900;2023-02-21T05:26:46;7.60;;;5.65;;
50337;SDS011;46221;51.178;5.900;2023-02-21T05:29:13;7.72;;;5.55;;
50337;SDS011;46221;51.178;5.900;2023-02-21T05:31:40;8.77;;;6.22;;
50337;SDS011;46221;51.178;5.900;2023-02-21T05:34:06;8.18;;;6.30;;
50337;SDS011;46221;51.178;5.900;2023-02-21T05:36:32;9.18;;;6.30;;
50337;SDS011;46221;51.178;5.900;2023-02-21T05:38:59;9.35;;;7.00;;
50337;SDS011;46221;51.178;5.900;2023-02-21T05:41:25;8.63;;;6.22;;
50337;SDS011;46221;51.178;5.900;2023-02-21T05:43:51;9.05;;;6.50;;
50337;SDS011;46221;51.178;5.900;2023-02-21T05:46:19;9.35;;;5.93;;
50337;SDS011;46221;51.178;5.900;2023-02-21T05:48:46;8.90;;;5.90;;
50337;SDS011;46221;51.178;5.900;2023-02-21T05:51:13;8.40;;;5.88;;
50337;SDS011;46221;51.178;5.900;2023-02-21T05:53:40;8.05;;;5.63;;
50337;SDS011;46221;51.178;5.900;2023-02-21T05:56:07;9.30;;;6.40;;
50337;SDS011;46221;51.178;5.900;2023-02-21T05:58:35;7.75;;;5.55;;
50337;SDS011;46221;51.178;5.900;2023-02-21T06:01:02;8.73;;;5.50;;
50337;SDS011;46221;51.178;5.900;2023-02-21T06:03:28;9.50;;;5.65;;
50337;SDS011;46221;51.178;5.900;2023-02-21T06:05:58;7.90;;;5.45;;
50337;SDS011;46221;51.178;5.900;2023-02-21T06:08:25;6.88;;;4.93;;
50337;SDS011;46221;51.178;5.900;2023-02-21T06:10:52;8.23;;;5.93;;
50337;SDS011;46221;51.178;5.900;2023-02-21T06:13:18;8.45;;;4.90;;
50337;SDS011;46221;51.178;5.900;2023-02-21T06:15:44;9.02;;;5.32;;
50337;SDS011;46221;51.178;5.900;2023-02-21T06:18:12;9.85;;;5.32;;
50337;SDS011;46221;51.178;5.900;2023-02-21T06:20:39;6.88;;;4.80;;
50337;SDS011;46221;51.178;5.900;2023-02-21T06:23:05;8.63;;;5.43;;
50337;SDS011;46221;51.178;5.900;2023-02-21T06:25:31;7.10;;;4.90;;
50337;SDS011;46221;51.178;5.900;2023-02-21T06:27:58;8.65;;;5.10;;
50337;SDS011;46221;51.178;5.900;2023-02-21T06:30:24;7.43;;;4.80;;
50337;SDS011;46221;51.178;5.900;2023-02-21T06:32:51;7.38;;;5.10;;
50337;SDS011;46221;51.178;5.900;2023-02-21T06:35:17;6.38;;;4.85;;
50337;SDS011;46221;51.178;5.900;2023-02-21T06:37:43;6.95;;;4.65;;
50337;SDS011;46221;51.178;5.900;2023-02-21T06:40:10;6.53;;;4.63;;
50337;SDS011;46221;51.178;5.900;2023-02-21T06:42:36;6.95;;;4.63;;
50337;SDS011;46221;51.178;5.900;2023-02-21T06:45:03;8.43;;;5.40;;
50337;SDS011;46221;51.178;5.900;2023-02-21T06:47:29;7.28;;;5.00;;
50337;SDS011;46221;51.178;5.900;2023-02-21T06:49:55;8.68;;;5.13;;
50337;SDS011;46221;51.178;5.900;2023-02-21T06:52:22;8.50;;;5.32;;
50337;SDS011;46221;51.178;5.900;2023-02-21T06:54:49;11.10;;;5.72;;
50337;SDS011;46221;51.178;5.900;2023-02-21T06:57:15;7.63;;;5.40;;
50337;SDS011;46221;51.178;5.900;2023-02-21T06:59:42;7.95;;;5.20;;
50337;SDS011;46221;51.178;5.900;2023-02-21T07:02:14;7.55;;;5.00;;
50337;SDS011;46221;51.178;5.900;2023-02-21T07:04:41;7.88;;;5.50;;
50337;SDS011;46221;51.178;5.900;2023-02-21T07:07:07;8.43;;;5.57;;
50337;SDS011;46221;51.178;5.900;2023-02-21T07:09:33;8.20;;;5.43;;
50337;SDS011;46221;51.178;5.900;2023-02-21T07:12:00;7.22;;;4.93;;
50337;SDS011;46221;51.178;5.900;2023-02-21T07:14:28;8.45;;;5.75;;
50337;SDS011;46221;51.178;5.900;2023-02-21T07:16:55;7.20;;;5.28;;
50337;SDS011;46221;51.178;5.900;2023-02-21T07:19:21;7.55;;;5.20;;
50337;SDS011;46221;51.178;5.900;2023-02-21T07:21:47;8.45;;;5.20;;
50337;SDS011;46221;51.178;5.900;2023-02-21T07:24:14;7.78;;;5.53;;
50337;SDS011;46221;51.178;5.900;2023-02-21T07:26:40;6.60;;;4.55;;
50337;SDS011;46221;51.178;5.900;2023-02-21T07:29:06;6.85;;;4.95;;
50337;SDS011;46221;51.178;5.900;2023-02-21T07:31:33;8.30;;;5.38;;
50337;SDS011;46221;51.178;5.900;2023-02-21T07:33:59;7.25;;;4.88;;
50337;SDS011;46221;51.178;5.900;2023-02-21T07:36:25;7.03;;;4.78;;
50337;SDS011;46221;51.178;5.900;2023-02-21T07:38:52;6.65;;;4.88;;
50337;SDS011;46221;51.178;5.900;2023-02-21T07:41:18;6.93;;;4.78;;
50337;SDS011;46221;51.178;5.900;2023-02-21T07:43:44;7.25;;;4.50;;
50337;SDS011;46221;51.178;5.900;2023-02-21T07:46:11;6.80;;;4.88;;
50337;SDS011;46221;51.178;5.900;2023-02-21T07:48:38;10.63;;;5.22;;
50337;SDS011;46221;51.178;5.900;2023-02-21T07:51:08;6.05;;;4.43;;
50337;SDS011;46221;51.178;5.900;2023-02-21T07:53:34;8.20;;;5.20;;
50337;SDS011;46221;51.178;5.900;2023-02-21T07:56:01;8.25;;;4.85;;
50337;SDS011;46221;51.178;5.900;2023-02-21T07:58:28;6.15;;;4.57;;
50337;SDS011;46221;51.178;5.900;2023-02-21T08:00:54;6.88;;;4.30;;
50337;SDS011;46221;51.178;5.900;2023-02-21T08:03:20;6.75;;;5.00;;
50337;SDS011;46221;51.178;5.900;2023-02-21T08:05:48;7.28;;;4.53;;
50337;SDS011;46221;51.178;5.900;2023-02-21T08:08:14;6.75;;;4.30;;
50337;SDS011;46221;51.178;5.900;2023-02-21T08:10:42;6.32;;;4.25;;
50337;SDS011;46221;51.178;5.900;2023-02-21T08:13:08;8.35;;;4.75;;
50337;SDS011;46221;51.178;5.900;2023-02-21T08:15:34;7.43;;;4.60;;
50337;SDS011;46221;51.178;5.900;2023-02-21T08:18:01;7.05;;;4.38;;
50337;SDS011;46221;51.178;5.900;2023-02-21T08:20:27;6.90;;;4.97;;
50337;SDS011;46221;51.178;5.900;2023-02-21T08:22:53;5.63;;;3.83;;
50337;SDS011;46221;51.178;5.900;2023-02-21T08:25:20;5.43;;;3.90;;
50337;SDS011;46221;51.178;5.900;2023-02-21T08:27:46;5.50;;;3.78;;
50337;SDS011;46221;51.178;5.900;2023-02-21T08:30:18;7.38;;;3.97;;
50337;SDS011;46221;51.178;5.900;2023-02-21T08:32:45;6.88;;;4.38;;
50337;SDS011;46221;51.178;5.900;2023-02-21T08:35:14;6.82;;;4.03;;
50337;SDS011;46221;51.178;5.900;2023-02-21T08:37:47;6.82;;;4.10;;
50337;SDS011;46221;51.178;5.900;2023-02-21T08:40:14;6.90;;;4.07;;
50337;SDS011;46221;51.178;5.900;2023-02-21T08:42:40;6.00;;;3.88;;
50337;SDS011;46221;51.178;5.900;2023-02-21T08:45:07;6.22;;;3.65;;
50337;SDS011;46221;51.178;5.900;2023-02-21T08:47:36;6.10;;;3.42;;
50337;SDS011;46221;51.178;5.900;2023-02-21T08:50:02;6.05;;;3.78;;
50337;SDS011;46221;51.178;5.900;2023-02-21T08:52:29;6.63;;;4.25;;
50337;SDS011;46221;51.178;5.900;2023-02-21T08:54:55;7.22;;;3.72;;
50337;SDS011;46221;51.178;5.900;2023-02-21T08:57:21;7.07;;;4.25;;
50337;SDS011;46221;51.178;5.900;2023-02-21T08:59:48;6.00;;;4.13;;
50337;SDS011;46221;51.178;5.900;2023-02-21T09:04:41;6.43;;;4.07;;
50337;SDS011;46221;51.178;5.900;2023-02-21T09:07:08;7.38;;;4.00;;
50337;SDS011;46221;51.178;5.900;2023-02-21T09:09:36;7.35;;;3.63;;
50337;SDS011;46221;51.178;5.900;2023-02-21T09:12:02;5.75;;;3.72;;
50337;SDS011;46221;51.178;5.900;2023-02-21T09:14:34;7.20;;;4.57;;
50337;SDS011;46221;51.178;5.900;2023-02-21T09:17:01;6.28;;;4.22;;
50337;SDS011;46221;51.178;5.900;2023-02-21T09:19:27;5.82;;;3.75;;
50337;SDS011;46221;51.178;5.900;2023-02-21T09:21:53;6.70;;;3.55;;
50337;SDS011;46221;51.178;5.900;2023-02-21T09:24:26;6.25;;;3.92;;
50337;SDS011;46221;51.178;5.900;2023-02-21T09:26:54;7.05;;;3.45;;
50337;SDS011;46221;51.178;5.900;2023-02-21T09:29:24;5.80;;;3.60;;
50337;SDS011;46221;51.178;5.900;2023-02-21T09:31:59;6.10;;;3.70;;
50337;SDS011;46221;51.178;5.900;2023-02-21T09:34:26;8.43;;;4.43;;
50337;SDS011;46221;51.178;5.900;2023-02-21T09:36:53;6.18;;;3.60;;
50337;SDS011;46221;51.178;5.900;2023-02-21T09:39:23;6.45;;;3.35;;
50337;SDS011;46221;51.178;5.900;2023-02-21T09:41:49;7.05;;;3.58;;
50337;SDS011;46221;51.178;5.900;2023-02-21T09:44:19;6.25;;;3.88;;
50337;SDS011;46221;51.178;5.900;2023-02-21T09:46:47;6.90;;;3.92;;
50337;SDS011;46221;51.178;5.900;2023-02-21T09:51:41;6.70;;;3.80;;
50337;SDS011;46221;51.178;5.900;2023-02-21T09:54:13;7.30;;;4.57;;
50337;SDS011;46221;51.178;5.900;2023-02-21T09:56:41;6.97;;;3.80;;
50337;SDS011;46221;51.178;5.900;2023-02-21T09:59:09;9.38;;;4.05;;
50337;SDS011;46221;51.178;5.900;2023-02-21T10:04:16;7.30;;;4.25;;
50337;SDS011;46221;51.178;5.900;2023-02-21T10:19:38;5.72;;;3.88;;
50337;SDS011;46221;51.178;5.900;2023-02-21T10:24:45;5.97;;;3.65;;
50337;SDS011;46221;51.178;5.900;2023-02-21T10:27:14;7.90;;;4.05;;
50337;SDS011;46221;51.178;5.900;2023-02-21T10:29:53;5.65;;;3.63;;
50337;SDS011;46221;51.178;5.900;2023-02-21T10:32:21;6.80;;;4.10;;
50337;SDS011;46221;51.178;5.900;2023-02-21T10:34:48;6.50;;;3.67;;
50337;SDS011;46221;51.178;5.900;2023-02-21T10:37:23;6.13;;;3.22;;
50337;SDS011;46221;51.178;5.900;2023-02-21T10:39:52;6.40;;;3.35;;
50337;SDS011;46221;51.178;5.900;2023-02-21T10:42:42;6.72;;;3.33;;
50337;SDS011;46221;51.178;5.900;2023-02-21T10:45:06;7.28;;;4.13;;
50337;SDS011;46221;51.178;5.900;2023-02-21T10:47:47;6.05;;;3.78;;
50337;SDS011;46221;51.178;5.900;2023-02-21T10:50:14;5.25;;;3.70;;
50337;SDS011;46221;51.178;5.900;2023-02-21T10:52:47;8.18;;;4.25;;
50337;SDS011;46221;51.178;5.900;2023-02-21T10:57:57;7.85;;;4.05;;
50337;SDS011;46221;51.178;5.900;2023-02-21T11:00:38;6.10;;;3.33;;
50337;SDS011;46221;51.178;5.900;2023-02-21T11:03:11;6.72;;;3.95;;
50337;SDS011;46221;51.178;5.900;2023-02-21T11:05:41;6.07;;;3.58;;
50337;SDS011;46221;51.178;5.900;2023-02-21T11:08:13;7.10;;;3.90;;
50337;SDS011;46221;51.178;5.900;2023-02-21T11:10:43;5.50;;;3.45;;
50337;SDS011;46221;51.178;5.900;2023-02-21T11:15:36;8.98;;;4.03;;
50337;SDS011;46221;51.178;5.900;2023-02-21T11:18:10;8.98;;;4.72;;
50337;SDS011;46221;51.178;5.900;2023-02-21T11:20:37;7.20;;;4.75;;
50337;SDS011;46221;51.178;5.900;2023-02-21T11:23:03;7.93;;;4.95;;
50337;SDS011;46221;51.178;5.900;2023-02-21T11:25:31;6.82;;;4.57;;
50337;SDS011;46221;51.178;5.900;2023-02-21T11:30:30;7.53;;;4.20;;
50337;SDS011;46221;51.178;5.900;2023-02-21T11:32:57;5.82;;;3.80;;
50337;SDS011;46221;51.178;5.900;2023-02-21T11:36:09;9.05;;;4.72;;
50337;SDS011;46221;51.178;5.900;2023-02-21T11:41:14;7.03;;;4.43;;
50337;SDS011;46221;51.178;5.900;2023-02-21T11:43:45;8.32;;;4.43;;
50337;SDS011;46221;51.178;5.900;2023-02-21T11:46:30;7.68;;;4.90;;
50337;SDS011;46221;51.178;5.900;2023-02-21T11:51:46;7.88;;;4.20;;
50337;SDS011;46221;51.178;5.900;2023-02-21T11:54:14;6.63;;;4.10;;
50337;SDS011;46221;51.178;5.900;2023-02-21T12:04:29;7.43;;;4.82;;
50337;SDS011;46221;51.178;5.900;2023-02-21T12:10:00;7.03;;;4.88;;
50337;SDS011;46221;51.178;5.900;2023-02-21T12:25:02;10.55;;;4.90;;
50337;SDS011;46221;51.178;5.900;2023-02-21T12:30:20;7.95;;;4.60;;
50337;SDS011;46221;51.178;5.900;2023-02-21T12:41:15;7.97;;;5.13;;
50337;SDS011;46221;51.178;5.900;2023-02-21T12:47:20;7.75;;;5.22;;
50337;SDS011;46221;51.178;5.900;2023-02-21T12:49:26;7.88;;;4.93;;
50337;SDS011;46221;51.178;5.900;2023-02-21T12:52:03;9.75;;;6.05;;
50337;SDS011;46221;51.178;5.900;2023-02-21T12:55:15;6.90;;;3.90;;
50337;SDS011;46221;51.178;5.900;2023-02-21T12:57:27;6.18;;;4.53;;
50337;SDS011;46221;51.178;5.900;2023-02-21T13:02:42;9.70;;;4.63;;
50337;SDS011;46221;51.178;5.900;2023-02-21T13:05:12;10.30;;;4.47;;
50337;SDS011;46221;51.178;5.900;2023-02-21T13:07:46;7.85;;;4.78;;
50337;SDS011;46221;51.178;5.900;2023-02-21T13:12:45;6.88;;;4.22;;
50337;SDS011;46221;51.178;5.900;2023-02-21T13:15:19;8.15;;;4.45;;
50337;SDS011;46221;51.178;5.900;2023-02-21T13:17:48;5.82;;;3.80;;
50337;SDS011;46221;51.178;5.900;2023-02-21T13:20:17;7.65;;;4.35;;
50337;SDS011;46221;51.178;5.900;2023-02-21T13:22:45;6.20;;;4.05;;
50337;SDS011;46221;51.178;5.900;2023-02-21T13:30:37;6.93;;;4.68;;
50337;SDS011;46221;51.178;5.900;2023-02-21T13:33:04;7.95;;;4.13;;
50337;SDS011;46221;51.178;5.900;2023-02-21T13:35:32;7.15;;;4.22;;
50337;SDS011;46221;51.178;5.900;2023-02-21T13:38:00;9.43;;;5.13;;
50337;SDS011;46221;51.178;5.900;2023-02-21T13:40:31;6.82;;;4.38;;
50337;SDS011;46221;51.178;5.900;2023-02-21T13:43:45;6.53;;;3.92;;
50337;SDS011;46221;51.178;5.900;2023-02-21T13:45:45;7.50;;;4.22;;
50337;SDS011;46221;51.178;5.900;2023-02-21T13:48:22;7.50;;;4.50;;
50337;SDS011;46221;51.178;5.900;2023-02-21T13:50:50;5.78;;;4.50;;
50337;SDS011;46221;51.178;5.900;2023-02-21T13:53:21;6.72;;;3.78;;
50337;SDS011;46221;51.178;5.900;2023-02-21T13:58:33;8.27;;;4.28;;
50337;SDS011;46221;51.178;5.900;2023-02-21T14:01:20;7.50;;;4.43;;
50337;SDS011;46221;51.178;5.900;2023-02-21T14:03:52;6.50;;;4.40;;
50337;SDS011;46221;51.178;5.900;2023-02-21T14:06:29;6.45;;;3.97;;
50337;SDS011;46221;51.178;5.900;2023-02-21T14:08:58;13.45;;;4.82;;
50337;SDS011;46221;51.178;5.900;2023-02-21T14:11:28;6.97;;;4.55;;
50337;SDS011;46221;51.178;5.900;2023-02-21T14:14:01;6.20;;;4.38;;
50337;SDS011;46221;51.178;5.900;2023-02-21T14:16:32;7.55;;;4.30;;
50337;SDS011;46221;51.178;5.900;2023-02-21T14:19:09;6.60;;;4.25;;
50337;SDS011;46221;51.178;5.900;2023-02-21T14:21:38;8.43;;;4.78;;
50337;SDS011;46221;51.178;5.900;2023-02-21T14:31:49;7.47;;;4.68;;
50337;SDS011;46221;51.178;5.900;2023-02-21T14:34:19;7.22;;;4.47;;
50337;SDS011;46221;51.178;5.900;2023-02-21T14:36:46;7.53;;;4.97;;
50337;SDS011;46221;51.178;5.900;2023-02-21T14:39:14;7.20;;;4.70;;
50337;SDS011;46221;51.178;5.900;2023-02-21T14:47:04;7.63;;;4.22;;
50337;SDS011;46221;51.178;5.900;2023-02-21T14:49:44;6.78;;;4.18;;
50337;SDS011;46221;51.178;5.900;2023-02-21T14:57:33;9.50;;;4.60;;
50337;SDS011;46221;51.178;5.900;2023-02-21T15:02:42;6.50;;;4.22;;
50337;SDS011;46221;51.178;5.900;2023-02-21T15:05:16;7.38;;;4.95;;
50337;SDS011;46221;51.178;5.900;2023-02-21T15:10:41;6.60;;;4.53;;
50337;SDS011;46221;51.178;5.900;2023-02-21T15:13:24;8.13;;;4.32;;
50337;SDS011;46221;51.178;5.900;2023-02-21T15:15:58;9.70;;;4.57;;
50337;SDS011;46221;51.178;5.900;2023-02-21T15:18:27;8.50;;;4.32;;
50337;SDS011;46221;51.178;5.900;2023-02-21T15:24:05;9.00;;;4.90;;
50337;SDS011;46221;51.178;5.900;2023-02-21T15:26:37;6.25;;;3.72;;
50337;SDS011;46221;51.178;5.900;2023-02-21T15:29:11;7.05;;;4.28;;
50337;SDS011;46221;51.178;5.900;2023-02-21T15:31:42;6.40;;;4.30;;
50337;SDS011;46221;51.178;5.900;2023-02-21T15:34:19;7.80;;;4.57;;
50337;SDS011;46221;51.178;5.900;2023-02-21T15:36:48;5.90;;;4.35;;
50337;SDS011;46221;51.178;5.900;2023-02-21T15:39:23;6.43;;;4.10;;
50337;SDS011;46221;51.178;5.900;2023-02-21T15:41:51;5.68;;;3.85;;
50337;SDS011;46221;51.178;5.900;2023-02-21T15:44:28;7.47;;;4.25;;
50337;SDS011;46221;51.178;5.900;2023-02-21T15:47:00;7.22;;;4.22;;
50337;SDS011;46221;51.178;5.900;2023-02-21T15:49:28;6.55;;;4.00;;
50337;SDS011;46221;51.178;5.900;2023-02-21T15:51:55;7.65;;;4.70;;
50337;SDS011;46221;51.178;5.900;2023-02-21T15:54:23;6.78;;;4.10;;
50337;SDS011;46221;51.178;5.900;2023-02-21T15:57:04;6.70;;;4.13;;
50337;SDS011;46221;51.178;5.900;2023-02-21T15:59:32;5.70;;;3.97;;
50337;SDS011;46221;51.178;5.900;2023-02-21T16:04:42;9.75;;;4.55;;
50337;SDS011;46221;51.178;5.900;2023-02-21T16:10:02;6.07;;;4.35;;
50337;SDS011;46221;51.178;5.900;2023-02-21T16:12:39;7.25;;;4.10;;
50337;SDS011;46221;51.178;5.900;2023-02-21T16:15:22;6.70;;;4.63;;
50337;SDS011;46221;51.178;5.900;2023-02-21T16:17:53;6.00;;;4.00;;
50337;SDS011;46221;51.178;5.900;2023-02-21T16:20:21;6.43;;;3.65;;
50337;SDS011;46221;51.178;5.900;2023-02-21T16:22:48;6.25;;;3.88;;
50337;SDS011;46221;51.178;5.900;2023-02-21T16:25:46;5.38;;;3.50;;
50337;SDS011;46221;51.178;5.900;2023-02-21T16:28:19;7.65;;;4.05;;
50337;SDS011;46221;51.178;5.900;2023-02-21T16:30:45;10.43;;;4.30;;
50337;SDS011;46221;51.178;5.900;2023-02-21T16:33:12;7.45;;;4.45;;
50337;SDS011;46221;51.178;5.900;2023-02-21T16:35:39;6.93;;;3.95;;
50337;SDS011;46221;51.178;5.900;2023-02-21T16:38:05;6.22;;;4.15;;
50337;SDS011;46221;51.178;5.900;2023-02-21T16:40:34;7.72;;;4.43;;
50337;SDS011;46221;51.178;5.900;2023-02-21T16:43:02;5.63;;;3.70;;
50337;SDS011;46221;51.178;5.900;2023-02-21T16:45:29;6.85;;;4.60;;
50337;SDS011;46221;51.178;5.900;2023-02-21T16:47:57;7.97;;;4.47;;
50337;SDS011;46221;51.178;5.900;2023-02-21T16:50:31;7.80;;;4.07;;
50337;SDS011;46221;51.178;5.900;2023-02-21T16:52:58;8.88;;;4.18;;
50337;SDS011;46221;51.178;5.900;2023-02-21T16:55:25;7.45;;;4.55;;
50337;SDS011;46221;51.178;5.900;2023-02-21T16:57:53;7.53;;;4.05;;
50337;SDS011;46221;51.178;5.900;2023-02-21T17:00:20;7.28;;;4.13;;
50337;SDS011;46221;51.178;5.900;2023-02-21T17:02:47;7.25;;;4.25;;
50337;SDS011;46221;51.178;5.900;2023-02-21T17:05:14;6.53;;;4.10;;
50337;SDS011;46221;51.178;5.900;2023-02-21T17:07:40;8.75;;;4.70;;
50337;SDS011;46221;51.178;5.900;2023-02-21T17:10:07;7.97;;;4.88;;
50337;SDS011;46221;51.178;5.900;2023-02-21T17:12:34;8.18;;;4.80;;
50337;SDS011;46221;51.178;5.900;2023-02-21T17:15:01;8.88;;;4.90;;
50337;SDS011;46221;51.178;5.900;2023-02-21T17:17:27;8.02;;;5.15;;
50337;SDS011;46221;51.178;5.900;2023-02-21T17:19:53;6.75;;;4.45;;
50337;SDS011;46221;51.178;5.900;2023-02-21T17:22:20;8.45;;;4.57;;
50337;SDS011;46221;51.178;5.900;2023-02-21T17:24:46;7.93;;;4.07;;
50337;SDS011;46221;51.178;5.900;2023-02-21T17:27:12;9.35;;;4.40;;
50337;SDS011;46221;51.178;5.900;2023-02-21T17:29:39;6.95;;;4.07;;
50337;SDS011;46221;51.178;5.900;2023-02-21T17:32:05;6.88;;;4.30;;
50337;SDS011;46221;51.178;5.900;2023-02-21T17:34:32;6.43;;;4.05;;